Terminal Aerodrome Forecast
Issued by NWS Springfield, MO

Home | Current Version | Previous Version | Text Only | Print | Product List | Glossary On
Versions: 1 2 3 4 5 6 7 8 9 10 11 12 13 14 15 16 17 18 19 20 21 22 23 24 25 26 27 28
270
FTUS43 KSGF 151823 AAA
TAFSGF
TAF AMD
KSGF 151823Z 1518/1618 13009KT 1/2SM -DZ FG OVC003
      TEMPO 1518/1522 1/4SM -DZ FG
     FM160600 13010KT 1 1/2SM -SHRA OVC003
     FM161000 14012G22KT 1SM -SHRA BR OVC003 WS020/17045KT
     FM161700 15013G23KT 4SM -SHRA OVC003=

USA.gov is the U.S. government's official web portal to all federal, state and local government web resources and services.